createdAt,value
2018-07-20T00:01:10.533Z,99.90
2018-07-20T00:03:38.915Z,99.90
2018-07-20T00:06:07.296Z,99.90
2018-07-20T00:08:35.682Z,99.90
2018-07-20T00:11:04.011Z,99.90
2018-07-20T00:13:32.408Z,99.90
2018-07-20T00:16:00.794Z,99.90
2018-07-20T00:18:29.180Z,99.90
2018-07-20T00:25:53.758Z,99.90
2018-07-20T00:28:22.225Z,99.90
2018-07-20T00:30:50.581Z,99.90
2018-07-20T00:33:18.945Z,99.90
2018-07-20T00:35:47.330Z,99.90
2018-07-20T00:38:15.712Z,99.90
2018-07-20T00:40:44.055Z,99.90
2018-07-20T00:43:12.417Z,99.90
2018-07-20T00:45:40.837Z,99.90
2018-07-20T00:48:09.244Z,99.90
2018-07-20T00:50:37.645Z,99.90
2018-07-20T00:53:06.009Z,99.90
2018-07-20T00:55:34.397Z,99.90
2018-07-20T00:58:02.776Z,99.90
2018-07-20T01:00:31.133Z,99.90
2018-07-20T01:02:59.520Z,99.90
2018-07-20T01:05:28.091Z,99.90
2018-07-20T01:07:56.426Z,99.90
2018-07-20T01:10:24.807Z,99.90
2018-07-20T01:15:21.333Z,99.90
2018-07-20T01:17:49.711Z,99.90
2018-07-20T01:20:18.057Z,99.90
2018-07-20T01:22:46.436Z,99.90
2018-07-20T01:25:14.860Z,99.90
2018-07-20T01:30:11.281Z,99.90
2018-07-20T01:32:39.685Z,99.90
2018-07-20T01:35:08.088Z,99.90
2018-07-20T01:37:36.453Z,99.90
2018-07-20T01:40:05.036Z,99.90
2018-07-20T01:42:33.411Z,99.90
2018-07-20T01:45:01.764Z,99.90
2018-07-20T01:47:30.161Z,99.90
2018-07-20T01:49:58.481Z,99.90
2018-07-20T01:52:26.985Z,99.90
2018-07-20T01:54:55.369Z,99.90
2018-07-20T01:57:23.756Z,99.90
2018-07-20T01:59:52.152Z,99.90
2018-07-20T02:02:20.523Z,99.90
2018-07-20T02:04:48.870Z,99.90
2018-07-20T02:07:17.244Z,99.90
2018-07-20T02:09:45.627Z,99.90
2018-07-20T02:12:14.003Z,99.90
2018-07-20T02:14:42.430Z,99.90
2018-07-20T02:17:10.852Z,99.90
2018-07-20T02:19:39.272Z,99.90
2018-07-20T02:22:07.669Z,99.90
2018-07-20T02:24:36.060Z,99.90
2018-07-20T02:27:04.505Z,99.90
2018-07-20T02:29:32.905Z,99.90
2018-07-20T02:32:01.261Z,99.90
2018-07-20T02:34:29.653Z,99.90
2018-07-20T02:36:58.030Z,99.90
2018-07-20T02:39:26.440Z,99.90
2018-07-20T02:41:54.840Z,99.90
2018-07-20T02:44:23.323Z,99.90
2018-07-20T02:46:51.706Z,99.90
2018-07-20T02:49:20.000Z,99.90
2018-07-20T02:51:48.327Z,99.90
2018-07-20T02:56:44.854Z,99.90
2018-07-20T02:59:13.261Z,99.90
2018-07-20T03:01:41.627Z,99.90
2018-07-20T03:04:10.045Z,99.90
2018-07-20T03:06:38.406Z,99.90
2018-07-20T03:09:09.364Z,99.90
2018-07-20T03:11:37.655Z,99.90
2018-07-20T03:14:06.078Z,99.90
2018-07-20T03:16:34.445Z,99.90
2018-07-20T03:19:02.783Z,99.90
2018-07-20T03:21:31.151Z,99.90
2018-07-20T03:23:59.546Z,99.90
2018-07-20T03:26:28.050Z,99.90
2018-07-20T03:28:56.459Z,99.90
2018-07-20T03:31:24.866Z,99.90
2018-07-20T03:33:53.235Z,99.90
2018-07-20T03:36:21.600Z,99.90
2018-07-20T03:38:50.138Z,99.90
2018-07-20T03:41:18.465Z,99.90
2018-07-20T03:43:46.864Z,99.90
2018-07-20T03:46:15.184Z,99.90
2018-07-20T03:48:43.600Z,99.90
2018-07-20T03:51:11.944Z,99.90
2018-07-20T03:53:40.298Z,99.90
2018-07-20T03:56:08.653Z,99.90
2018-07-20T03:58:37.015Z,99.90
2018-07-20T04:01:05.457Z,99.90
2018-07-20T04:03:33.937Z,99.90
2018-07-20T04:06:02.349Z,99.90
2018-07-20T04:08:30.761Z,99.90
2018-07-20T04:10:59.084Z,99.90
2018-07-20T04:13:27.415Z,99.90
2018-07-20T04:15:55.745Z,99.90
2018-07-20T04:18:24.136Z,99.90
2018-07-20T04:20:52.552Z,99.90
2018-07-20T04:23:20.932Z,99.90
2018-07-20T04:25:49.346Z,99.90
2018-07-20T04:28:17.745Z,99.90
2018-07-20T04:30:46.496Z,99.90
2018-07-20T04:33:14.831Z,99.90
2018-07-20T04:35:43.206Z,99.90
2018-07-20T04:38:11.511Z,99.90
2018-07-20T04:40:39.929Z,99.90
2018-07-20T04:45:36.325Z,99.90
2018-07-20T04:48:04.759Z,99.90
2018-07-20T04:50:33.109Z,99.90
2018-07-20T04:53:01.496Z,99.90
2018-07-20T04:55:29.904Z,99.90
2018-07-20T04:57:58.235Z,99.90
2018-07-20T05:00:26.605Z,99.90
2018-07-20T05:02:54.980Z,99.90
2018-07-20T05:05:23.386Z,99.90
2018-07-20T05:07:51.756Z,99.90
2018-07-20T05:10:20.103Z,99.90
2018-07-20T05:12:48.416Z,99.90
2018-07-20T05:15:16.824Z,99.90
2018-07-20T05:17:45.157Z,99.90
2018-07-20T05:20:13.482Z,99.90
2018-07-20T05:22:41.854Z,99.90
2018-07-20T05:25:10.277Z,99.90
2018-07-20T05:27:38.641Z,99.90
2018-07-20T05:30:07.025Z,99.90
2018-07-20T05:32:35.406Z,99.90
2018-07-20T05:35:03.770Z,99.90
2018-07-20T05:37:32.135Z,99.90
2018-07-20T05:40:00.469Z,99.90
2018-07-20T05:44:56.913Z,99.90
2018-07-20T05:47:25.256Z,99.90
2018-07-20T05:49:53.647Z,99.90
2018-07-20T05:52:21.999Z,99.90
2018-07-20T05:54:50.313Z,99.90
2018-07-20T05:57:18.696Z,99.90
2018-07-20T05:59:47.074Z,99.90
2018-07-20T06:02:15.716Z,99.90
2018-07-20T06:04:44.071Z,99.90
2018-07-20T06:07:12.388Z,97.80
2018-07-20T06:09:40.807Z,96.40
2018-07-20T06:12:09.135Z,95.40
2018-07-20T06:14:37.468Z,93.50
2018-07-20T06:17:06.015Z,92.80
2018-07-20T06:19:34.395Z,92.70
2018-07-20T06:22:02.707Z,92.90
2018-07-20T06:26:59.074Z,89.40
2018-07-20T06:29:27.378Z,91.30
2018-07-20T06:31:55.696Z,90.60
2018-07-20T06:34:24.044Z,89.10
2018-07-20T06:36:52.436Z,88.90
2018-07-20T06:39:20.744Z,88.40
2018-07-20T06:41:49.044Z,81.70
2018-07-20T06:44:17.367Z,75.00
2018-07-20T06:46:45.721Z,68.30
2018-07-20T06:49:14.087Z,66.20
2018-07-20T06:51:42.412Z,62.00
2018-07-20T06:54:10.690Z,61.20
2018-07-20T06:59:07.142Z,58.20
2018-07-20T07:01:35.576Z,56.10
2018-07-20T07:04:03.928Z,55.30
2018-07-20T07:06:32.314Z,56.80
2018-07-20T07:09:00.668Z,55.90
2018-07-20T07:11:29.071Z,56.60
2018-07-20T07:13:57.394Z,55.30
2018-07-20T07:16:25.849Z,54.30
2018-07-20T07:18:54.218Z,53.00
2018-07-20T07:21:22.630Z,53.60
2018-07-20T07:23:50.932Z,53.50
2018-07-20T07:26:19.280Z,53.50
2018-07-20T07:28:47.665Z,55.00
2018-07-20T07:31:15.951Z,52.50
2018-07-20T07:33:44.240Z,51.50
2018-07-20T07:36:12.621Z,52.70
2018-07-20T07:38:40.922Z,51.60
2018-07-20T07:41:09.233Z,51.10
2018-07-20T07:43:37.518Z,49.50
2018-07-20T07:46:06.072Z,49.00
2018-07-20T07:48:34.355Z,49.60
2018-07-20T07:51:02.657Z,48.30
2018-07-20T07:53:30.937Z,47.20
2018-07-20T07:58:27.259Z,47.90
2018-07-20T08:00:55.554Z,47.30
2018-07-20T08:03:23.918Z,47.30
2018-07-20T08:05:52.180Z,46.70
2018-07-20T08:08:20.437Z,46.00
2018-07-20T08:10:48.714Z,45.40
2018-07-20T08:13:17.012Z,46.00
2018-07-20T08:15:45.339Z,44.10
2018-07-20T08:18:13.618Z,43.00
2018-07-20T08:20:41.964Z,43.30
2018-07-20T08:25:38.370Z,41.60
2018-07-20T08:28:06.676Z,42.00
2018-07-20T08:30:34.951Z,39.90
2018-07-20T08:33:03.280Z,38.30
2018-07-20T08:35:31.701Z,39.00
2018-07-20T08:38:00.111Z,36.80
2018-07-20T08:40:28.558Z,39.50
2018-07-20T08:42:56.856Z,39.40
2018-07-20T08:47:53.248Z,37.60
2018-07-20T08:50:21.636Z,36.70
2018-07-20T08:52:49.929Z,38.40
2018-07-20T08:55:18.236Z,40.40
2018-07-20T08:57:46.552Z,41.40
2018-07-20T09:00:14.810Z,42.00
2018-07-20T09:02:43.208Z,42.60
2018-07-20T09:05:11.569Z,42.40
2018-07-20T09:07:39.851Z,42.90
2018-07-20T09:10:08.217Z,42.40
2018-07-20T09:12:36.531Z,41.70
2018-07-20T09:15:05.044Z,42.90
2018-07-20T09:17:33.340Z,44.30
2018-07-20T09:22:29.767Z,44.60
2018-07-20T09:24:58.047Z,43.90
2018-07-20T09:27:26.325Z,43.10
2018-07-20T09:29:54.602Z,46.10
2018-07-20T09:34:51.194Z,47.10
2018-07-20T09:37:19.491Z,47.80
2018-07-20T09:39:47.771Z,49.60
2018-07-20T09:42:16.050Z,48.40
2018-07-20T09:44:44.382Z,49.20
2018-07-20T09:47:12.682Z,46.90
2018-07-20T09:49:40.946Z,50.70
2018-07-20T09:52:09.334Z,48.70
2018-07-20T09:54:37.607Z,48.40
2018-07-20T09:57:05.946Z,48.40
2018-07-20T09:59:34.278Z,49.70
2018-07-20T10:02:02.556Z,51.20
2018-07-20T10:04:31.008Z,49.40
2018-07-20T10:06:59.283Z,48.80
2018-07-20T10:09:27.663Z,49.70
2018-07-20T10:11:56.038Z,49.80
2018-07-20T10:14:24.337Z,51.90
2018-07-20T10:16:52.614Z,49.30
2018-07-20T10:19:20.906Z,51.60
2018-07-20T10:21:49.174Z,50.90
2018-07-20T10:24:17.514Z,51.40
2018-07-20T10:26:45.819Z,51.60
2018-07-20T10:29:14.112Z,51.70
2018-07-20T10:31:42.391Z,52.30
2018-07-20T10:34:10.708Z,50.90
2018-07-20T10:36:38.972Z,51.30
2018-07-20T10:39:08.438Z,51.80
2018-07-20T10:41:36.700Z,50.90
2018-07-20T10:44:05.002Z,52.20
2018-07-20T10:46:33.276Z,50.60
2018-07-20T10:49:01.605Z,50.90
2018-07-20T10:51:29.904Z,50.40
2018-07-20T10:53:58.501Z,51.00
2018-07-20T10:56:26.775Z,49.30
2018-07-20T10:58:55.329Z,48.60
2018-07-20T11:01:23.849Z,49.10
2018-07-20T11:03:52.077Z,49.30
2018-07-20T11:06:20.365Z,47.80
2018-07-20T11:08:48.652Z,47.80
2018-07-20T11:11:17.007Z,48.00
2018-07-20T11:13:45.307Z,47.90
2018-07-20T11:16:13.590Z,47.60
2018-07-20T11:18:41.907Z,47.00
2018-07-20T11:21:10.230Z,47.60
2018-07-20T11:23:38.499Z,49.30
2018-07-20T11:26:07.278Z,48.60
2018-07-20T11:28:35.561Z,48.30
2018-07-20T11:31:03.867Z,48.90
2018-07-20T11:33:32.237Z,48.40
2018-07-20T11:36:00.610Z,48.50
2018-07-20T11:38:28.934Z,47.20
2018-07-20T11:40:57.217Z,48.70
2018-07-20T11:45:53.524Z,46.60
2018-07-20T11:48:21.798Z,48.70
2018-07-20T11:50:50.131Z,48.60
2018-07-20T11:53:18.385Z,48.30
2018-07-20T11:55:46.700Z,47.30
2018-07-20T11:58:14.967Z,48.70
2018-07-20T12:00:43.245Z,48.50
2018-07-20T12:03:11.529Z,46.90
2018-07-20T12:05:39.803Z,46.90
2018-07-20T12:08:08.154Z,47.70
2018-07-20T12:10:36.466Z,48.20
2018-07-20T12:13:04.760Z,49.70
2018-07-20T12:15:33.087Z,47.20
2018-07-20T12:18:01.438Z,47.50
2018-07-20T12:20:29.750Z,48.60
2018-07-20T12:22:58.021Z,48.50
2018-07-20T12:25:26.482Z,47.30
2018-07-20T12:27:55.142Z,47.50
2018-07-20T12:30:23.855Z,47.80
2018-07-20T12:32:52.137Z,46.90
2018-07-20T12:35:20.488Z,46.40
2018-07-20T12:37:48.813Z,47.20
2018-07-20T12:40:17.102Z,47.10
2018-07-20T12:42:45.435Z,46.80
2018-07-20T12:45:13.740Z,49.30
2018-07-20T12:47:42.050Z,47.30
2018-07-20T12:50:10.414Z,46.40
2018-07-20T12:52:38.656Z,46.80
2018-07-20T12:55:07.151Z,46.00
2018-07-20T12:57:35.430Z,45.80
2018-07-20T13:00:03.781Z,46.40
2018-07-20T13:02:32.485Z,46.70
2018-07-20T13:05:00.876Z,45.20
2018-07-20T13:07:29.275Z,45.20
2018-07-20T13:09:57.610Z,44.30
2018-07-20T13:12:25.977Z,46.90
2018-07-20T13:14:54.294Z,46.40
2018-07-20T13:17:22.894Z,47.10
2018-07-20T13:19:51.907Z,45.40
2018-07-20T13:22:20.198Z,47.00
2018-07-20T13:24:48.615Z,45.60
2018-07-20T13:27:17.309Z,47.30
2018-07-20T13:29:45.652Z,45.50
2018-07-20T13:32:13.937Z,46.60
2018-07-20T13:34:42.283Z,46.40
2018-07-20T13:37:10.562Z,46.10
2018-07-20T13:39:38.936Z,44.90
2018-07-20T13:42:07.453Z,46.30
2018-07-20T13:44:35.895Z,45.90
2018-07-20T13:47:04.323Z,44.90
2018-07-20T13:49:32.795Z,44.30
2018-07-20T13:52:01.171Z,45.20
2018-07-20T13:54:29.496Z,45.80
2018-07-20T13:56:57.827Z,45.70
2018-07-20T13:59:26.200Z,46.10
2018-07-20T14:01:54.521Z,45.60
2018-07-20T14:04:22.900Z,46.90
2018-07-20T14:06:51.337Z,47.30
2018-07-20T14:09:19.670Z,47.40
2018-07-20T14:11:48.156Z,46.90
2018-07-20T14:14:16.488Z,47.30
2018-07-20T14:16:44.961Z,47.20
2018-07-20T14:19:13.208Z,49.10
2018-07-20T14:21:41.540Z,48.20
2018-07-20T14:24:09.907Z,48.60
2018-07-20T14:26:38.292Z,48.00
2018-07-20T14:29:06.571Z,48.40
2018-07-20T14:31:35.075Z,48.40
2018-07-20T14:34:03.390Z,48.10
2018-07-20T14:36:31.838Z,48.90
2018-07-20T14:39:00.193Z,48.50
2018-07-20T14:41:28.526Z,47.80
2018-07-20T14:43:56.802Z,49.00
2018-07-20T14:46:32.020Z,48.80
2018-07-20T14:49:00.388Z,48.40
2018-07-20T14:51:28.737Z,48.80
2018-07-20T14:53:57.073Z,49.10
2018-07-20T14:56:25.475Z,48.70
2018-07-20T15:01:22.154Z,48.60
2018-07-20T15:03:50.490Z,47.70
2018-07-20T15:06:18.895Z,49.50
2018-07-20T15:08:47.226Z,47.40
2018-07-20T15:11:15.574Z,47.30
2018-07-20T15:13:43.914Z,47.30
2018-07-20T15:16:12.257Z,48.50
2018-07-20T15:18:40.623Z,49.00
2018-07-20T15:21:08.946Z,47.10
2018-07-20T15:23:37.309Z,48.70
2018-07-20T15:26:05.693Z,48.20
2018-07-20T15:28:34.045Z,46.70
2018-07-20T15:31:02.481Z,47.20
2018-07-20T15:33:30.825Z,47.20
2018-07-20T15:35:59.254Z,47.30
2018-07-20T15:38:27.619Z,47.90
2018-07-20T15:40:55.969Z,47.50
2018-07-20T15:43:24.424Z,46.90
2018-07-20T15:46:05.765Z,45.30
2018-07-20T15:48:21.127Z,45.60
2018-07-20T15:50:49.555Z,45.10
2018-07-20T15:53:45.583Z,45.50
2018-07-20T15:55:46.240Z,46.30
2018-07-20T15:58:14.612Z,45.80
2018-07-20T16:03:11.092Z,47.00
2018-07-20T16:05:39.529Z,47.00
2018-07-20T16:08:07.813Z,45.10
2018-07-20T16:10:36.149Z,46.90
2018-07-20T16:13:04.666Z,47.10
2018-07-20T16:15:32.947Z,46.80
2018-07-20T16:18:01.312Z,47.00
2018-07-20T16:20:29.795Z,45.80
2018-07-20T16:22:58.151Z,44.30
2018-07-20T16:25:26.521Z,45.80
2018-07-20T16:27:54.872Z,45.00
2018-07-20T16:30:23.338Z,45.20
2018-07-20T16:32:51.678Z,46.20
2018-07-20T16:35:20.019Z,46.50
2018-07-20T16:37:48.448Z,47.00
2018-07-20T16:40:16.809Z,46.10
2018-07-20T16:42:45.258Z,46.90
2018-07-20T16:45:13.700Z,44.80
2018-07-20T16:47:42.050Z,45.80
2018-07-20T16:50:10.470Z,47.60
2018-07-20T16:52:38.764Z,47.50
2018-07-20T16:55:07.097Z,47.30
2018-07-20T16:57:35.414Z,46.70
2018-07-20T17:00:04.630Z,45.50
2018-07-20T17:02:32.953Z,46.60
2018-07-20T17:07:29.536Z,46.50
2018-07-20T17:09:57.873Z,46.60
2018-07-20T17:12:26.238Z,47.30
2018-07-20T17:14:54.622Z,48.30
2018-07-20T17:17:23.056Z,47.70
2018-07-20T17:19:51.410Z,48.00
2018-07-20T17:22:19.919Z,48.70
2018-07-20T17:24:48.247Z,50.20
2018-07-20T17:27:16.589Z,52.10
2018-07-20T17:29:45.050Z,52.50
2018-07-20T17:32:13.508Z,52.10
2018-07-20T17:34:41.906Z,52.00
2018-07-20T17:37:10.372Z,51.10
2018-07-20T17:39:38.802Z,50.10
2018-07-20T17:42:07.336Z,50.70
2018-07-20T17:44:36.202Z,51.60
2018-07-20T17:47:04.688Z,52.10
2018-07-20T17:49:33.135Z,51.90
2018-07-20T17:52:01.441Z,52.50
2018-07-20T17:54:29.905Z,52.50
2018-07-20T17:56:58.262Z,51.20
2018-07-20T17:59:26.712Z,51.50
2018-07-20T18:01:55.507Z,51.10
2018-07-20T18:04:23.805Z,51.00
2018-07-20T18:06:52.158Z,50.30
2018-07-20T18:09:20.566Z,50.20
2018-07-20T18:11:48.976Z,50.80
2018-07-20T18:14:17.321Z,51.30
2018-07-20T18:16:45.698Z,53.30
2018-07-20T18:19:14.066Z,54.10
2018-07-20T18:21:49.139Z,54.30
2018-07-20T18:24:17.548Z,54.80
2018-07-20T18:26:45.964Z,57.30
2018-07-20T18:29:14.400Z,58.50
2018-07-20T18:31:42.703Z,58.60
2018-07-20T18:34:11.087Z,59.70
2018-07-20T18:36:39.457Z,61.00
2018-07-20T18:39:09.957Z,61.90
2018-07-20T18:41:39.175Z,66.20
2018-07-20T18:44:07.682Z,67.80
2018-07-20T18:46:36.214Z,69.20
2018-07-20T18:49:04.607Z,70.10
2018-07-20T18:51:33.011Z,71.00
2018-07-20T18:54:01.361Z,67.80
2018-07-20T18:56:29.773Z,69.90
2018-07-20T18:58:58.178Z,71.20
2018-07-20T19:01:26.864Z,69.80
2018-07-20T19:03:55.207Z,71.20
2018-07-20T19:06:23.586Z,70.00
2018-07-20T19:08:51.932Z,67.40
2018-07-20T19:11:20.221Z,67.20
2018-07-20T19:13:48.588Z,67.70
2018-07-20T19:16:17.017Z,70.10
2018-07-20T19:18:45.310Z,70.70
2018-07-20T19:21:13.610Z,73.00
2018-07-20T19:23:41.934Z,74.10
2018-07-20T19:26:10.187Z,75.50
2018-07-20T19:28:38.455Z,75.60
2018-07-20T19:31:06.769Z,76.60
2018-07-20T19:33:35.037Z,76.80
2018-07-20T19:36:03.369Z,76.80
2018-07-20T19:38:31.667Z,76.90
2018-07-20T19:40:59.927Z,78.30
2018-07-20T19:43:28.236Z,79.60
2018-07-20T19:45:56.611Z,81.00
2018-07-20T19:48:24.967Z,81.30
2018-07-20T19:50:53.305Z,80.10
2018-07-20T19:53:21.715Z,78.90
2018-07-20T19:55:50.042Z,78.80
2018-07-20T19:58:18.344Z,78.70
2018-07-20T20:00:46.641Z,78.60
2018-07-20T20:03:14.907Z,80.30
2018-07-20T20:05:43.296Z,80.40
2018-07-20T20:08:11.609Z,81.10
2018-07-20T20:10:39.872Z,81.00
2018-07-20T20:13:08.217Z,83.60
2018-07-20T20:20:32.702Z,87.50
2018-07-20T20:23:01.094Z,88.90
2018-07-20T20:25:29.460Z,88.40
2018-07-20T20:27:57.771Z,89.00
2018-07-20T20:30:26.298Z,89.00
2018-07-20T20:32:54.569Z,89.20
2018-07-20T20:35:22.904Z,90.20
2018-07-20T20:37:51.234Z,91.10
2018-07-20T20:40:19.563Z,90.60
2018-07-20T20:42:47.908Z,91.10
2018-07-20T20:45:16.246Z,91.90
2018-07-20T20:47:44.707Z,91.60
2018-07-20T20:50:13.053Z,92.40
2018-07-20T20:52:41.441Z,92.90
2018-07-20T20:57:37.784Z,93.40
2018-07-20T21:00:06.623Z,93.40
2018-07-20T21:02:34.926Z,93.40
2018-07-20T21:05:03.302Z,93.30
2018-07-20T21:07:31.725Z,94.50
2018-07-20T21:10:00.031Z,94.80
2018-07-20T21:12:28.523Z,94.60
2018-07-20T21:14:56.821Z,95.20
2018-07-20T21:17:25.224Z,95.40
2018-07-20T21:19:53.581Z,95.90
2018-07-20T21:22:21.944Z,95.50
2018-07-20T21:24:50.400Z,95.60
2018-07-20T21:27:18.731Z,96.00
2018-07-20T21:29:47.202Z,95.00
2018-07-20T21:32:15.591Z,95.90
2018-07-20T21:34:43.995Z,96.30
2018-07-20T21:37:12.347Z,96.20
2018-07-20T21:39:40.783Z,96.90
2018-07-20T21:42:09.072Z,97.50
2018-07-20T21:44:37.538Z,98.20
2018-07-20T21:47:06.188Z,99.00
2018-07-20T21:49:34.617Z,99.50
2018-07-20T21:52:02.999Z,99.90
2018-07-20T21:54:31.401Z,99.90
2018-07-20T21:59:27.947Z,99.90
2018-07-20T22:01:57.123Z,99.90
2018-07-20T22:04:25.423Z,99.90
2018-07-20T22:06:53.755Z,99.90
2018-07-20T22:09:22.121Z,99.90
2018-07-20T22:11:50.478Z,99.90
2018-07-20T22:14:18.940Z,99.90
2018-07-20T22:16:47.279Z,99.90
2018-07-20T22:19:15.567Z,99.90
2018-07-20T22:21:43.833Z,99.90
2018-07-20T22:24:12.117Z,99.90
2018-07-20T22:26:40.402Z,99.90
2018-07-20T22:29:08.710Z,99.90
2018-07-20T22:31:36.971Z,99.90
2018-07-20T22:36:33.544Z,99.90
2018-07-20T22:39:01.852Z,99.90
2018-07-20T22:41:30.156Z,99.90
2018-07-20T22:43:58.454Z,99.90
2018-07-20T22:46:26.719Z,99.90
2018-07-20T22:48:54.997Z,99.90
2018-07-20T22:51:23.282Z,99.90
2018-07-20T22:53:51.671Z,99.90
2018-07-20T22:56:19.963Z,99.90
2018-07-20T22:58:48.220Z,99.90
2018-07-20T23:01:16.499Z,99.90
2018-07-20T23:03:44.808Z,99.90
2018-07-20T23:06:13.087Z,99.90
2018-07-20T23:08:41.401Z,99.90
2018-07-20T23:11:09.703Z,99.90
2018-07-20T23:13:38.383Z,99.90
2018-07-20T23:16:06.695Z,99.90
2018-07-20T23:18:35.092Z,99.90
2018-07-20T23:21:03.443Z,99.90
2018-07-20T23:23:31.814Z,99.90
2018-07-20T23:26:00.113Z,99.90
2018-07-20T23:28:28.380Z,99.90
2018-07-20T23:30:56.692Z,99.90
2018-07-20T23:33:24.977Z,99.90
2018-07-20T23:35:53.268Z,99.90
2018-07-20T23:38:21.538Z,99.90
2018-07-20T23:40:49.838Z,99.90
2018-07-20T23:43:18.124Z,99.90
2018-07-20T23:45:46.521Z,99.90
2018-07-20T23:48:14.812Z,99.90
2018-07-20T23:50:43.116Z,99.90
2018-07-20T23:53:11.364Z,99.90
2018-07-20T23:55:39.660Z,99.90
2018-07-20T23:58:07.950Z,99.90
